createdAt,value
2023-03-20T00:01:01.019Z,18.67
2023-03-20T00:03:29.111Z,18.83
2023-03-20T00:05:57.216Z,18.25
2023-03-20T00:08:27.393Z,19.65
2023-03-20T00:10:57.584Z,19.13
2023-03-20T00:13:29.298Z,19.05
2023-03-20T00:15:57.597Z,18.80
2023-03-20T00:18:26.917Z,18.25
2023-03-20T00:20:55.054Z,18.00
2023-03-20T00:23:23.024Z,18.02
2023-03-20T00:25:52.245Z,17.92
2023-03-20T00:28:41.313Z,17.92
2023-03-20T00:31:21.080Z,18.13
2023-03-20T00:33:50.004Z,18.30
2023-03-20T00:36:19.154Z,17.30
2023-03-20T00:38:47.246Z,17.98
2023-03-20T00:41:27.594Z,19.25
2023-03-20T00:44:00.113Z,17.77
2023-03-20T00:46:29.623Z,19.20
2023-03-20T00:48:57.810Z,19.45
2023-03-20T00:51:26.362Z,19.20
2023-03-20T00:53:54.161Z,19.05
2023-03-20T00:56:42.013Z,17.80
2023-03-20T00:59:19.473Z,18.27
2023-03-20T01:01:47.580Z,18.75
2023-03-20T01:04:18.280Z,18.70
2023-03-20T01:06:46.473Z,17.77
2023-03-20T01:09:14.524Z,18.13
2023-03-20T01:11:43.831Z,17.95
2023-03-20T01:14:16.258Z,20.00
2023-03-20T01:16:44.425Z,19.30
2023-03-20T01:19:14.418Z,18.55
2023-03-20T01:21:42.867Z,15.50
2023-03-20T01:24:10.698Z,13.98
2023-03-20T01:26:40.282Z,10.48
2023-03-20T01:29:18.206Z,11.13
2023-03-20T01:31:46.739Z,10.13
2023-03-20T01:34:16.690Z,8.82
2023-03-20T01:36:48.905Z,7.97
2023-03-20T01:39:18.182Z,7.68
2023-03-20T01:41:47.342Z,8.40
2023-03-20T01:44:22.528Z,7.55
2023-03-20T01:46:55.655Z,8.30
2023-03-20T01:50:01.170Z,8.55
2023-03-20T01:52:29.272Z,7.85
2023-03-20T01:54:57.215Z,7.63
2023-03-20T01:57:25.976Z,7.30
2023-03-20T02:00:02.690Z,6.93
2023-03-20T02:02:45.168Z,7.07
2023-03-20T02:05:20.931Z,7.03
2023-03-20T02:07:57.583Z,7.70
2023-03-20T02:10:25.733Z,7.20
2023-03-20T02:13:03.341Z,7.23
2023-03-20T02:18:32.844Z,7.90
2023-03-20T02:21:27.312Z,8.48
2023-03-20T02:24:33.124Z,9.35
2023-03-20T02:27:11.968Z,7.40
2023-03-20T02:30:14.542Z,8.57
2023-03-20T02:33:16.113Z,8.90
2023-03-20T02:36:33.896Z,9.93
2023-03-20T02:39:23.887Z,9.85
2023-03-20T02:41:58.337Z,9.85
2023-03-20T02:44:34.440Z,10.35
2023-03-20T02:47:08.334Z,9.77
2023-03-20T02:49:52.548Z,8.48
2023-03-20T02:52:27.379Z,9.70
2023-03-20T02:55:02.332Z,9.63
2023-03-20T02:57:41.849Z,8.38
2023-03-20T03:00:14.471Z,8.45
2023-03-20T03:02:49.067Z,8.80
2023-03-20T03:05:24.925Z,8.68
2023-03-20T03:07:56.895Z,8.45
2023-03-20T03:10:30.641Z,7.93
2023-03-20T03:13:00.630Z,8.32
2023-03-20T03:15:32.802Z,7.28
2023-03-20T03:18:02.469Z,7.65
2023-03-20T03:20:33.829Z,7.35
2023-03-20T03:23:02.376Z,7.50
2023-03-20T03:25:35.614Z,7.07
2023-03-20T03:28:07.188Z,7.20
2023-03-20T03:30:39.094Z,7.47
2023-03-20T03:33:15.665Z,6.00
2023-03-20T03:38:28.037Z,5.72
2023-03-20T03:41:12.097Z,5.60
2023-03-20T03:43:45.894Z,6.05
2023-03-20T03:46:19.729Z,5.57
2023-03-20T03:48:52.017Z,5.25
2023-03-20T03:51:25.342Z,5.25
2023-03-20T03:54:09.679Z,4.78
2023-03-20T03:56:41.733Z,4.45
2023-03-20T03:59:15.649Z,4.47
2023-03-20T04:01:44.662Z,3.70
2023-03-20T04:04:15.775Z,3.90
2023-03-20T04:06:43.557Z,4.18
2023-03-20T04:09:11.166Z,3.85
2023-03-20T04:11:40.461Z,3.92
2023-03-20T04:14:09.256Z,3.90
2023-03-20T04:16:37.686Z,3.80
2023-03-20T04:19:05.546Z,4.35
2023-03-20T04:21:33.086Z,3.88
2023-03-20T04:24:00.780Z,4.35
2023-03-20T04:26:28.438Z,4.10
2023-03-20T04:28:58.617Z,4.00
2023-03-20T04:31:48.554Z,4.10
2023-03-20T04:34:23.218Z,4.00
2023-03-20T04:37:11.168Z,4.00
2023-03-20T04:40:00.220Z,4.05
2023-03-20T04:42:28.062Z,3.40
2023-03-20T04:45:02.521Z,3.75
2023-03-20T04:47:31.442Z,4.00
2023-03-20T04:49:59.611Z,4.18
2023-03-20T04:52:27.266Z,3.70
2023-03-20T04:54:54.769Z,3.70
2023-03-20T04:57:22.476Z,4.03
2023-03-20T04:59:50.608Z,3.80
2023-03-20T05:02:20.784Z,4.03
2023-03-20T05:04:48.458Z,3.88
2023-03-20T05:07:16.305Z,3.72
2023-03-20T05:09:55.682Z,4.03
2023-03-20T05:12:25.156Z,3.67
2023-03-20T05:15:11.325Z,3.45
2023-03-20T05:17:58.910Z,3.72
2023-03-20T05:20:39.142Z,4.18
2023-03-20T05:23:42.306Z,4.18
2023-03-20T05:26:45.366Z,4.03
2023-03-20T05:29:18.673Z,3.83
2023-03-20T05:32:09.433Z,4.05
2023-03-20T05:35:01.862Z,4.07
2023-03-20T05:37:43.619Z,4.65
2023-03-20T05:40:25.631Z,3.92
2023-03-20T05:43:19.046Z,3.92
2023-03-20T05:46:06.603Z,4.07
2023-03-20T05:48:46.210Z,4.63
2023-03-20T05:51:21.450Z,4.13
2023-03-20T05:54:08.124Z,4.35
2023-03-20T05:56:59.512Z,4.38
2023-03-20T05:59:44.886Z,4.30
2023-03-20T06:02:15.830Z,5.10
2023-03-20T06:04:50.653Z,4.22
2023-03-20T06:07:43.598Z,4.50
2023-03-20T06:10:15.634Z,4.28
2023-03-20T06:12:44.140Z,4.95
2023-03-20T06:15:12.985Z,4.65
2023-03-20T06:17:46.296Z,4.63
2023-03-20T06:20:16.521Z,4.55
2023-03-20T06:22:46.585Z,4.70
2023-03-20T06:25:17.110Z,4.60
2023-03-20T06:27:47.937Z,4.97
2023-03-20T06:30:17.025Z,5.43
2023-03-20T06:32:46.894Z,5.45
2023-03-20T06:35:15.365Z,5.75
2023-03-20T06:37:48.877Z,5.60
2023-03-20T06:40:22.737Z,5.93
2023-03-20T06:42:51.080Z,5.40
2023-03-20T06:45:20.156Z,5.50
2023-03-20T06:48:02.187Z,5.13
2023-03-20T06:50:47.173Z,5.32
2023-03-20T06:53:20.099Z,5.18
2023-03-20T06:56:09.676Z,5.13
2023-03-20T06:58:40.930Z,5.38
2023-03-20T07:01:13.873Z,6.20
2023-03-20T07:03:42.358Z,6.32
2023-03-20T07:06:12.427Z,6.07
2023-03-20T07:08:42.769Z,6.28
2023-03-20T07:11:10.917Z,5.55
2023-03-20T07:13:39.264Z,5.57
2023-03-20T07:16:18.494Z,5.28
2023-03-20T07:18:47.700Z,5.22
2023-03-20T07:21:19.969Z,4.63
2023-03-20T07:23:49.887Z,4.03
2023-03-20T07:26:18.083Z,4.28
2023-03-20T07:28:46.524Z,3.88
2023-03-20T07:31:24.428Z,3.80
2023-03-20T07:34:01.884Z,3.50
2023-03-20T07:36:30.843Z,3.17
2023-03-20T07:39:00.662Z,3.05
2023-03-20T07:41:31.266Z,3.30
2023-03-20T07:44:10.880Z,3.38
2023-03-20T07:46:49.342Z,3.47
2023-03-20T07:49:20.862Z,2.78
2023-03-20T07:51:49.729Z,2.40
2023-03-20T07:54:19.098Z,2.80
2023-03-20T07:56:47.194Z,2.35
2023-03-20T07:59:15.253Z,3.25
2023-03-20T08:01:43.159Z,2.50
2023-03-20T08:04:11.696Z,2.20
2023-03-20T08:06:43.893Z,2.70
2023-03-20T08:09:11.981Z,2.17
2023-03-20T08:11:41.657Z,1.92
2023-03-20T08:14:10.856Z,1.67
2023-03-20T08:16:38.781Z,1.85
2023-03-20T08:19:06.916Z,1.75
2023-03-20T08:21:34.768Z,1.77
2023-03-20T08:24:03.016Z,1.10
2023-03-20T08:26:31.392Z,1.02
2023-03-20T08:29:01.136Z,0.73
2023-03-20T08:31:29.154Z,0.52
2023-03-20T08:33:57.788Z,0.80
2023-03-20T08:36:26.090Z,0.60
2023-03-20T08:38:54.136Z,0.60
2023-03-20T08:41:28.565Z,0.60
2023-03-20T08:43:56.592Z,0.57
2023-03-20T08:46:26.153Z,0.70
2023-03-20T08:48:54.162Z,0.60
2023-03-20T08:51:22.818Z,0.22
2023-03-20T08:53:51.203Z,0.50
2023-03-20T08:56:19.122Z,0.60
2023-03-20T08:58:47.271Z,0.30
2023-03-20T09:01:15.830Z,0.30
2023-03-20T09:03:45.692Z,0.30
2023-03-20T09:06:13.839Z,0.40
2023-03-20T09:08:42.006Z,0.32
2023-03-20T09:11:09.900Z,0.52
2023-03-20T09:13:37.924Z,0.30
2023-03-20T09:16:06.953Z,0.40
2023-03-20T09:18:34.860Z,0.55
2023-03-20T09:21:04.460Z,0.50
2023-03-20T09:23:32.449Z,0.20
2023-03-20T09:26:00.616Z,0.20
2023-03-20T09:28:28.663Z,0.20
2023-03-20T09:30:57.518Z,0.28
2023-03-20T09:33:26.249Z,0.30
2023-03-20T09:35:54.164Z,0.30
2023-03-20T09:38:24.587Z,0.20
2023-03-20T09:40:54.996Z,0.30
2023-03-20T09:43:36.643Z,0.40
2023-03-20T09:46:18.052Z,0.57
2023-03-20T09:48:53.115Z,0.40
2023-03-20T09:51:31.785Z,0.40
2023-03-20T09:54:07.957Z,0.40
2023-03-20T09:56:36.366Z,0.20
2023-03-20T09:59:06.908Z,0.10
2023-03-20T10:01:44.689Z,0.40
2023-03-20T10:04:13.475Z,0.20
2023-03-20T10:06:41.430Z,0.60
2023-03-20T10:09:17.927Z,0.20
2023-03-20T10:12:09.448Z,0.22
2023-03-20T10:14:48.187Z,0.43
2023-03-20T10:17:26.917Z,0.38
2023-03-20T10:19:59.877Z,0.20
2023-03-20T10:22:32.825Z,0.40
2023-03-20T10:25:09.152Z,0.43
2023-03-20T10:27:43.461Z,0.30
2023-03-20T10:30:36.698Z,0.30
2023-03-20T10:33:22.303Z,0.25
2023-03-20T10:35:57.777Z,0.20
2023-03-20T10:38:36.316Z,0.10
2023-03-20T10:41:10.794Z,0.30
2023-03-20T10:43:43.306Z,0.10
2023-03-20T10:46:14.859Z,0.20
2023-03-20T10:48:46.882Z,0.30
2023-03-20T10:51:17.426Z,0.40
2023-03-20T10:53:47.873Z,0.30
2023-03-20T10:56:23.036Z,0.20
2023-03-20T10:58:58.515Z,0.20
2023-03-20T11:01:27.193Z,0.40
2023-03-20T11:03:56.033Z,0.30
2023-03-20T11:06:28.598Z,0.20
2023-03-20T11:08:56.658Z,0.20
2023-03-20T11:11:28.281Z,0.17
2023-03-20T11:13:56.355Z,0.22
2023-03-20T11:16:27.046Z,0.20
2023-03-20T11:18:55.176Z,0.22
2023-03-20T11:21:25.571Z,0.43
2023-03-20T11:23:55.330Z,0.17
2023-03-20T11:26:36.421Z,0.30
2023-03-20T11:29:07.421Z,0.30
2023-03-20T11:31:37.287Z,0.20
2023-03-20T11:34:22.390Z,0.20
2023-03-20T11:37:09.717Z,0.38
2023-03-20T11:39:41.167Z,0.20
2023-03-20T11:42:24.350Z,0.20
2023-03-20T11:44:59.270Z,0.25
2023-03-20T11:47:29.395Z,0.10
2023-03-20T11:49:59.952Z,0.30
2023-03-20T11:52:31.239Z,0.20
2023-03-20T11:55:01.256Z,0.22
2023-03-20T11:57:38.531Z,0.30
2023-03-20T12:00:18.691Z,0.30
2023-03-20T12:02:47.074Z,0.35
2023-03-20T12:05:31.352Z,0.35
2023-03-20T12:08:04.909Z,0.40
2023-03-20T12:10:39.883Z,0.40
2023-03-20T12:13:14.946Z,0.28
2023-03-20T12:15:47.825Z,0.40
2023-03-20T12:18:22.425Z,0.30
2023-03-20T12:21:03.008Z,0.40
2023-03-20T12:23:35.050Z,0.40
2023-03-20T12:26:08.171Z,0.40
2023-03-20T12:28:43.731Z,0.50
2023-03-20T12:31:24.012Z,0.40
2023-03-20T12:33:57.339Z,0.30
2023-03-20T12:36:31.615Z,0.40
2023-03-20T12:38:59.630Z,0.47
2023-03-20T12:41:31.036Z,0.28
2023-03-20T12:44:25.492Z,0.70
2023-03-20T12:47:01.984Z,0.40
2023-03-20T12:52:15.906Z,0.57
2023-03-20T12:55:03.374Z,0.47
2023-03-20T12:57:37.325Z,0.38
2023-03-20T13:00:25.129Z,0.30
2023-03-20T13:03:05.371Z,0.20
2023-03-20T13:05:42.644Z,0.52
2023-03-20T13:08:33.906Z,0.38
2023-03-20T13:11:11.211Z,0.50
2023-03-20T13:13:46.770Z,0.20
2023-03-20T13:16:27.242Z,0.30
2023-03-20T13:19:03.575Z,0.32
2023-03-20T13:21:39.453Z,0.30
2023-03-20T13:24:19.974Z,0.20
2023-03-20T13:26:55.293Z,0.30
2023-03-20T13:29:32.792Z,0.50
2023-03-20T13:32:13.934Z,0.25
2023-03-20T13:34:59.804Z,0.38
2023-03-20T13:37:35.475Z,0.30
2023-03-20T13:40:14.956Z,0.20
2023-03-20T13:42:48.068Z,0.20
2023-03-20T13:45:31.767Z,0.50
2023-03-20T13:48:06.408Z,0.68
2023-03-20T13:50:46.247Z,0.70
2023-03-20T13:53:25.955Z,0.70
2023-03-20T13:56:01.912Z,0.90
2023-03-20T13:58:46.817Z,0.90
2023-03-20T14:01:22.632Z,0.60
2023-03-20T14:03:54.076Z,0.60
2023-03-20T14:06:50.073Z,0.60
2023-03-20T14:09:33.632Z,0.75
2023-03-20T14:12:04.567Z,1.55
2023-03-20T14:14:33.858Z,0.82
2023-03-20T14:17:14.151Z,0.80
2023-03-20T14:19:44.249Z,5.13
2023-03-20T14:22:18.704Z,1.30
2023-03-20T14:24:53.369Z,1.00
2023-03-20T14:27:36.779Z,0.50
2023-03-20T14:30:41.843Z,0.50
2023-03-20T14:33:27.278Z,0.40
2023-03-20T14:36:22.101Z,0.30
2023-03-20T14:39:20.708Z,0.30
2023-03-20T14:42:18.687Z,0.30
2023-03-20T14:44:56.698Z,0.22
2023-03-20T14:47:44.653Z,0.40
2023-03-20T14:50:19.075Z,0.20
2023-03-20T14:52:56.862Z,0.30
2023-03-20T14:55:35.632Z,0.20
2023-03-20T14:58:06.423Z,0.25
2023-03-20T15:00:46.953Z,0.40
2023-03-20T15:03:18.792Z,0.30
2023-03-20T15:05:48.304Z,0.30
2023-03-20T15:08:23.464Z,0.30
2023-03-20T15:10:54.816Z,0.40
2023-03-20T15:13:24.940Z,0.38
2023-03-20T15:15:55.358Z,0.40
2023-03-20T15:18:25.169Z,0.43
2023-03-20T15:20:58.024Z,0.50
2023-03-20T15:23:28.198Z,0.50
2023-03-20T15:25:56.463Z,0.70
2023-03-20T15:28:26.005Z,0.80
2023-03-20T15:30:59.747Z,1.30
2023-03-20T15:33:31.516Z,1.25
2023-03-20T15:36:08.964Z,0.90
2023-03-20T15:38:39.660Z,0.95
2023-03-20T15:41:09.707Z,1.10
2023-03-20T15:43:38.445Z,0.95
2023-03-20T15:46:18.092Z,1.17
2023-03-20T15:48:50.512Z,0.73
2023-03-20T15:51:21.787Z,0.88
2023-03-20T15:53:51.190Z,1.20
2023-03-20T15:56:20.619Z,1.70
2023-03-20T15:58:54.381Z,1.30
2023-03-20T16:01:24.686Z,1.17
2023-03-20T16:03:53.736Z,1.05
2023-03-20T16:06:25.032Z,0.95
2023-03-20T16:09:02.450Z,0.90
2023-03-20T16:11:39.368Z,0.75
2023-03-20T16:14:10.550Z,0.93
2023-03-20T16:16:47.631Z,1.10
2023-03-20T16:19:16.470Z,1.00
2023-03-20T16:21:50.531Z,0.80
2023-03-20T16:24:22.957Z,1.17
2023-03-20T16:26:53.608Z,1.10
2023-03-20T16:29:23.872Z,1.50
2023-03-20T16:31:56.934Z,1.08
2023-03-20T16:34:28.153Z,1.35
2023-03-20T16:36:59.423Z,1.40
2023-03-20T16:39:30.496Z,1.40
2023-03-20T16:42:22.841Z,1.40
2023-03-20T16:44:56.533Z,1.70
2023-03-20T16:47:33.357Z,1.30
2023-03-20T16:50:20.307Z,1.55
2023-03-20T16:52:51.030Z,1.90
2023-03-20T16:55:25.372Z,1.63
2023-03-20T16:57:59.510Z,2.22
2023-03-20T17:00:30.432Z,2.10
2023-03-20T17:03:10.649Z,2.25
2023-03-20T17:05:53.736Z,2.05
2023-03-20T17:08:31.806Z,1.60
2023-03-20T17:11:09.107Z,2.40
2023-03-20T17:13:37.053Z,2.53
2023-03-20T17:16:05.550Z,1.98
2023-03-20T17:18:34.726Z,2.88
2023-03-20T17:21:02.544Z,3.67
2023-03-20T17:23:31.562Z,3.03
2023-03-20T17:26:01.103Z,2.65
2023-03-20T17:28:34.296Z,2.42
2023-03-20T17:31:05.499Z,2.08
2023-03-20T17:33:34.099Z,2.30
2023-03-20T17:36:02.142Z,2.50
2023-03-20T17:38:30.223Z,3.30
2023-03-20T17:40:59.250Z,2.83
2023-03-20T17:43:28.690Z,2.47
2023-03-20T17:45:56.651Z,2.50
2023-03-20T17:48:25.976Z,1.85
2023-03-20T17:50:54.090Z,2.47
2023-03-20T17:53:26.035Z,3.25
2023-03-20T17:55:54.146Z,2.30
2023-03-20T17:58:24.016Z,2.45
2023-03-20T18:00:55.100Z,2.25
2023-03-20T18:03:23.144Z,1.90
2023-03-20T18:05:52.043Z,2.50
2023-03-20T18:08:22.240Z,2.78
2023-03-20T18:10:52.078Z,2.55
2023-03-20T18:13:21.704Z,2.75
2023-03-20T18:15:49.894Z,2.25
2023-03-20T18:18:22.536Z,2.10
2023-03-20T18:20:54.478Z,2.55
2023-03-20T18:23:23.323Z,2.78
2023-03-20T18:25:51.190Z,2.33
2023-03-20T18:28:23.345Z,2.22
2023-03-20T18:30:51.903Z,2.22
2023-03-20T18:33:27.005Z,2.20
2023-03-20T18:35:55.090Z,2.22
2023-03-20T18:38:25.041Z,2.42
2023-03-20T18:40:53.134Z,2.13
2023-03-20T18:43:21.176Z,2.88
2023-03-20T18:45:49.055Z,2.88
2023-03-20T18:48:17.252Z,2.83
2023-03-20T18:50:51.623Z,2.70
2023-03-20T18:53:19.806Z,3.47
2023-03-20T18:55:47.782Z,3.53
2023-03-20T18:58:30.239Z,4.20
2023-03-20T19:01:00.672Z,5.18
2023-03-20T19:03:28.972Z,4.38
2023-03-20T19:05:59.190Z,4.40
2023-03-20T19:08:27.310Z,5.50
2023-03-20T19:10:55.210Z,8.88
2023-03-20T19:13:25.069Z,10.38
2023-03-20T19:15:53.225Z,11.25
2023-03-20T19:18:23.022Z,10.50
2023-03-20T19:20:52.944Z,9.05
2023-03-20T19:23:23.788Z,6.95
2023-03-20T19:25:53.121Z,8.10
2023-03-20T19:28:37.678Z,7.68
2023-03-20T19:31:08.289Z,9.90
2023-03-20T19:33:38.784Z,8.38
2023-03-20T19:36:08.709Z,10.98
2023-03-20T19:38:41.465Z,12.27
2023-03-20T19:41:09.471Z,21.75
2023-03-20T19:43:51.632Z,12.25
2023-03-20T19:46:38.167Z,10.43
2023-03-20T19:51:35.233Z,6.63
2023-03-20T19:54:05.235Z,6.97
2023-03-20T19:56:34.797Z,6.88
2023-03-20T19:59:03.196Z,7.45
2023-03-20T20:01:31.482Z,8.93
2023-03-20T20:03:59.579Z,10.80
2023-03-20T20:06:31.623Z,9.98
2023-03-20T20:09:08.336Z,8.18
2023-03-20T20:11:36.461Z,8.60
2023-03-20T20:14:08.279Z,8.90
2023-03-20T20:16:37.797Z,8.70
2023-03-20T20:19:05.981Z,8.90
2023-03-20T20:24:24.057Z,8.82
2023-03-20T20:27:03.102Z,8.65
2023-03-20T20:29:41.241Z,8.90
2023-03-20T20:32:09.583Z,10.10
2023-03-20T20:40:18.175Z,11.40
2023-03-20T20:43:09.990Z,9.15
2023-03-20T20:45:38.964Z,9.73
2023-03-20T20:48:08.600Z,9.27
2023-03-20T20:50:36.813Z,10.13
2023-03-20T20:53:04.997Z,10.77
2023-03-20T20:55:34.412Z,10.45
2023-03-20T20:58:04.170Z,10.55
2023-03-20T21:00:48.619Z,11.05
2023-03-20T21:03:18.002Z,11.10
2023-03-20T21:05:45.792Z,11.77
2023-03-20T21:08:14.693Z,19.05
2023-03-20T21:10:45.269Z,13.90
2023-03-20T21:13:13.371Z,13.15
2023-03-20T21:15:42.178Z,12.80
2023-03-20T21:18:10.244Z,14.40
2023-03-20T21:20:38.548Z,13.38
2023-03-20T21:23:06.668Z,16.60
2023-03-20T21:25:41.170Z,16.30
2023-03-20T21:28:12.269Z,16.73
2023-03-20T21:31:09.070Z,13.70
2023-03-20T21:33:30.166Z,12.40
2023-03-20T21:35:58.075Z,11.88
2023-03-20T21:41:15.485Z,14.65
2023-03-20T21:43:47.613Z,14.00
2023-03-20T21:55:37.066Z,13.35
2023-03-20T21:58:21.417Z,12.05
2023-03-20T22:03:11.610Z,10.50
2023-03-20T22:12:01.590Z,12.55
2023-03-20T22:14:54.636Z,11.20
2023-03-20T22:17:41.487Z,11.38
2023-03-20T22:23:29.327Z,11.30
2023-03-20T22:40:22.887Z,13.18
2023-03-20T22:45:07.219Z,22.90
2023-03-20T22:47:36.260Z,21.08
2023-03-20T22:50:06.386Z,15.63
2023-03-20T22:52:48.004Z,12.93
2023-03-20T22:55:17.711Z,11.05
2023-03-20T22:57:59.899Z,8.85
2023-03-20T23:00:33.781Z,8.77
2023-03-20T23:03:14.117Z,7.93
2023-03-20T23:05:45.244Z,7.57
2023-03-20T23:08:13.185Z,7.38
2023-03-20T23:10:43.931Z,7.93
2023-03-20T23:13:12.584Z,7.35
2023-03-20T23:15:40.380Z,6.68
2023-03-20T23:18:10.025Z,8.13
2023-03-20T23:20:38.112Z,6.85
2023-03-20T23:23:07.464Z,6.78
2023-03-20T23:25:39.670Z,5.97
2023-03-20T23:28:09.824Z,5.57
2023-03-20T23:30:46.247Z,5.45
2023-03-20T23:33:17.555Z,5.28
2023-03-20T23:35:45.428Z,5.05
2023-03-20T23:38:14.530Z,4.97
2023-03-20T23:40:48.004Z,4.72
2023-03-20T23:44:07.699Z,4.38
2023-03-20T23:46:35.415Z,3.45
2023-03-20T23:49:03.137Z,3.85
2023-03-20T23:51:31.031Z,3.40
2023-03-20T23:54:00.234Z,3.60
2023-03-20T23:56:28.037Z,4.13
2023-03-20T23:59:05.293Z,3.30
